sensor_id;sensor_type;location;lat;lon;timestamp;pressure;altitude;pressure_sealevel;temperature;humidity
75414;BME280;64758;52.122;5.404;2023-11-18T00:01:05;102609.88;;;3.15;100.00
75414;BME280;64758;52.122;5.404;2023-11-18T00:03:32;102603.97;;;3.12;100.00
75414;BME280;64758;52.122;5.404;2023-11-18T00:05:58;102610.91;;;3.13;100.00
75414;BME280;64758;52.122;5.404;2023-11-18T00:08:26;102607.63;;;3.09;100.00
75414;BME280;64758;52.122;5.404;2023-11-18T00:10:53;102610.25;;;3.09;100.00
75414;BME280;64758;52.122;5.404;2023-11-18T00:13:20;102605.09;;;3.08;100.00
75414;BME280;64758;52.122;5.404;2023-11-18T00:15:47;102600.78;;;3.07;100.00
75414;BME280;64758;52.122;5.404;2023-11-18T00:18:14;102606.88;;;3.07;100.00
75414;BME280;64758;52.122;5.404;2023-11-18T00:20:42;102606.97;;;3.06;100.00
75414;BME280;64758;52.122;5.404;2023-11-18T00:23:09;102607.91;;;3.05;100.00
75414;BME280;64758;52.122;5.404;2023-11-18T00:25:36;102624.59;;;3.04;100.00
75414;BME280;64758;52.122;5.404;2023-11-18T00:28:03;102610.09;;;2.98;100.00
75414;BME280;64758;52.122;5.404;2023-11-18T00:30:29;102604.84;;;2.98;100.00
75414;BME280;64758;52.122;5.404;2023-11-18T00:32:56;102604.63;;;3.01;100.00
75414;BME280;64758;52.122;5.404;2023-11-18T00:35:23;102602.84;;;3.02;100.00
75414;BME280;64758;52.122;5.404;2023-11-18T00:37:50;102596.03;;;2.99;100.00
75414;BME280;64758;52.122;5.404;2023-11-18T00:40:16;102591.72;;;2.98;100.00
75414;BME280;64758;52.122;5.404;2023-11-18T00:42:46;102595.34;;;2.96;100.00
75414;BME280;64758;52.122;5.404;2023-11-18T00:45:12;102589.47;;;2.92;100.00
75414;BME280;64758;52.122;5.404;2023-11-18T00:47:39;102596.28;;;2.95;100.00
75414;BME280;64758;52.122;5.404;2023-11-18T00:50:07;102594.53;;;2.95;100.00
75414;BME280;64758;52.122;5.404;2023-11-18T00:52:35;102602.59;;;2.92;100.00
75414;BME280;64758;52.122;5.404;2023-11-18T00:55:06;102601.72;;;2.92;100.00
75414;BME280;64758;52.122;5.404;2023-11-18T00:57:33;102604.34;;;2.92;100.00
75414;BME280;64758;52.122;5.404;2023-11-18T01:00:00;102606.72;;;2.96;100.00
75414;BME280;64758;52.122;5.404;2023-11-18T01:02:26;102609.03;;;3.01;100.00
75414;BME280;64758;52.122;5.404;2023-11-18T01:04:54;102617.84;;;3.00;100.00
75414;BME280;64758;52.122;5.404;2023-11-18T01:07:20;102617.94;;;2.98;100.00
75414;BME280;64758;52.122;5.404;2023-11-18T01:09:47;102623.94;;;3.00;100.00
75414;BME280;64758;52.122;5.404;2023-11-18T01:12:15;102622.72;;;3.06;100.00
75414;BME280;64758;52.122;5.404;2023-11-18T01:14:42;102617.28;;;3.09;100.00
75414;BME280;64758;52.122;5.404;2023-11-18T01:17:08;102613.44;;;3.14;100.00
75414;BME280;64758;52.122;5.404;2023-11-18T01:19:40;102619.25;;;3.19;100.00
75414;BME280;64758;52.122;5.404;2023-11-18T01:22:07;102613.69;;;3.24;100.00
75414;BME280;64758;52.122;5.404;2023-11-18T01:24:33;102621.38;;;3.27;100.00
75414;BME280;64758;52.122;5.404;2023-11-18T01:27:00;102617.63;;;3.31;100.00
75414;BME280;64758;52.122;5.404;2023-11-18T01:29:27;102628.69;;;3.36;100.00
75414;BME280;64758;52.122;5.404;2023-11-18T01:31:53;102622.50;;;3.37;100.00
75414;BME280;64758;52.122;5.404;2023-11-18T01:34:22;102615.47;;;3.37;100.00
75414;BME280;64758;52.122;5.404;2023-11-18T01:36:49;102619.13;;;3.35;100.00
75414;BME280;64758;52.122;5.404;2023-11-18T01:39:17;102628.06;;;3.32;100.00
75414;BME280;64758;52.122;5.404;2023-11-18T01:41:44;102623.06;;;3.28;100.00
75414;BME280;64758;52.122;5.404;2023-11-18T01:44:11;102614.91;;;3.32;100.00
75414;BME280;64758;52.122;5.404;2023-11-18T01:46:42;102614.72;;;3.35;100.00
75414;BME280;64758;52.122;5.404;2023-11-18T01:49:13;102612.84;;;3.37;100.00
75414;BME280;64758;52.122;5.404;2023-11-18T01:51:45;102612.47;;;3.43;100.00
75414;BME280;64758;52.122;5.404;2023-11-18T01:54:15;102614.97;;;3.45;100.00
75414;BME280;64758;52.122;5.404;2023-11-18T01:56:47;102605.97;;;3.49;100.00
75414;BME280;64758;52.122;5.404;2023-11-18T01:59:14;102602.31;;;3.51;100.00
75414;BME280;64758;52.122;5.404;2023-11-18T02:01:53;102602.13;;;3.54;100.00
75414;BME280;64758;52.122;5.404;2023-11-18T02:04:24;102611.28;;;3.61;100.00
75414;BME280;64758;52.122;5.404;2023-11-18T02:06:52;102616.34;;;3.64;100.00
75414;BME280;64758;52.122;5.404;2023-11-18T02:09:20;102603.00;;;3.67;100.00
75414;BME280;64758;52.122;5.404;2023-11-18T02:14:49;102611.25;;;3.75;100.00
75414;BME280;64758;52.122;5.404;2023-11-18T02:17:19;102620.63;;;3.79;100.00
75414;BME280;64758;52.122;5.404;2023-11-18T02:19:46;102622.94;;;3.83;100.00
75414;BME280;64758;52.122;5.404;2023-11-18T02:22:13;102615.78;;;3.85;100.00
75414;BME280;64758;52.122;5.404;2023-11-18T02:24:41;102611.06;;;3.90;100.00
75414;BME280;64758;52.122;5.404;2023-11-18T02:27:08;102624.75;;;3.95;100.00
75414;BME280;64758;52.122;5.404;2023-11-18T02:29:43;102617.50;;;3.99;100.00
75414;BME280;64758;52.122;5.404;2023-11-18T02:32:23;102612.91;;;4.02;100.00
75414;BME280;64758;52.122;5.404;2023-11-18T02:37:42;102611.56;;;4.09;100.00
75414;BME280;64758;52.122;5.404;2023-11-18T02:40:13;102603.47;;;4.12;100.00
75414;BME280;64758;52.122;5.404;2023-11-18T02:42:43;102609.34;;;4.16;100.00
75414;BME280;64758;52.122;5.404;2023-11-18T02:45:13;102602.19;;;4.18;100.00
75414;BME280;64758;52.122;5.404;2023-11-18T02:47:44;102608.72;;;4.25;100.00
75414;BME280;64758;52.122;5.404;2023-11-18T02:50:11;102594.03;;;4.22;100.00
75414;BME280;64758;52.122;5.404;2023-11-18T02:52:40;102595.28;;;4.29;100.00
75414;BME280;64758;52.122;5.404;2023-11-18T02:55:07;102586.25;;;4.33;100.00
75414;BME280;64758;52.122;5.404;2023-11-18T02:57:35;102578.44;;;4.32;100.00
75414;BME280;64758;52.122;5.404;2023-11-18T03:00:03;102566.78;;;4.36;100.00
75414;BME280;64758;52.122;5.404;2023-11-18T03:02:31;102576.47;;;4.35;100.00
75414;BME280;64758;52.122;5.404;2023-11-18T03:04:58;102571.00;;;4.38;100.00
75414;BME280;64758;52.122;5.404;2023-11-18T03:07:25;102573.44;;;4.41;100.00
75414;BME280;64758;52.122;5.404;2023-11-18T03:09:53;102569.94;;;4.41;100.00
75414;BME280;64758;52.122;5.404;2023-11-18T03:12:23;102569.84;;;4.42;100.00
75414;BME280;64758;52.122;5.404;2023-11-18T03:14:54;102580.16;;;4.45;100.00
75414;BME280;64758;52.122;5.404;2023-11-18T03:17:21;102569.72;;;4.44;100.00
75414;BME280;64758;52.122;5.404;2023-11-18T03:19:48;102568.69;;;4.46;100.00
75414;BME280;64758;52.122;5.404;2023-11-18T03:22:17;102570.38;;;4.47;100.00
75414;BME280;64758;52.122;5.404;2023-11-18T03:24:43;102564.25;;;4.47;100.00
75414;BME280;64758;52.122;5.404;2023-11-18T03:27:10;102558.16;;;4.46;100.00
75414;BME280;64758;52.122;5.404;2023-11-18T03:29:36;102545.84;;;4.47;100.00
75414;BME280;64758;52.122;5.404;2023-11-18T03:32:03;102559.72;;;4.49;100.00
75414;BME280;64758;52.122;5.404;2023-11-18T03:34:31;102556.16;;;4.50;100.00
75414;BME280;64758;52.122;5.404;2023-11-18T03:36:59;102552.38;;;4.54;100.00
75414;BME280;64758;52.122;5.404;2023-11-18T03:39:25;102540.81;;;4.56;100.00
75414;BME280;64758;52.122;5.404;2023-11-18T03:41:53;102543.97;;;4.61;100.00
75414;BME280;64758;52.122;5.404;2023-11-18T03:44:20;102549.09;;;4.63;100.00
75414;BME280;64758;52.122;5.404;2023-11-18T03:46:47;102538.38;;;4.66;100.00
75414;BME280;64758;52.122;5.404;2023-11-18T03:49:13;102533.00;;;4.67;100.00
75414;BME280;64758;52.122;5.404;2023-11-18T03:51:40;102523.81;;;4.73;100.00
75414;BME280;64758;52.122;5.404;2023-11-18T03:54:07;102513.22;;;4.74;100.00
75414;BME280;64758;52.122;5.404;2023-11-18T03:56:35;102506.88;;;4.77;100.00
75414;BME280;64758;52.122;5.404;2023-11-18T03:59:01;102503.06;;;4.81;100.00
75414;BME280;64758;52.122;5.404;2023-11-18T04:01:30;102501.19;;;4.83;100.00
75414;BME280;64758;52.122;5.404;2023-11-18T04:03:57;102505.28;;;4.87;100.00
75414;BME280;64758;52.122;5.404;2023-11-18T04:06:24;102496.56;;;4.86;100.00
75414;BME280;64758;52.122;5.404;2023-11-18T04:08:51;102489.25;;;4.90;100.00
75414;BME280;64758;52.122;5.404;2023-11-18T04:11:17;102484.72;;;4.92;100.00
75414;BME280;64758;52.122;5.404;2023-11-18T04:13:44;102486.41;;;4.93;100.00
75414;BME280;64758;52.122;5.404;2023-11-18T04:16:14;102492.53;;;4.93;100.00
75414;BME280;64758;52.122;5.404;2023-11-18T04:18:44;102491.59;;;4.94;100.00
75414;BME280;64758;52.122;5.404;2023-11-18T04:21:12;102499.25;;;4.97;100.00
75414;BME280;64758;52.122;5.404;2023-11-18T04:23:41;102492.91;;;4.99;100.00
75414;BME280;64758;52.122;5.404;2023-11-18T04:26:08;102479.66;;;5.01;100.00
75414;BME280;64758;52.122;5.404;2023-11-18T04:28:36;102476.91;;;5.02;100.00
75414;BME280;64758;52.122;5.404;2023-11-18T04:31:03;102467.09;;;5.04;100.00
75414;BME280;64758;52.122;5.404;2023-11-18T04:33:32;102473.00;;;5.08;100.00
75414;BME280;64758;52.122;5.404;2023-11-18T04:35:59;102465.94;;;5.08;100.00
75414;BME280;64758;52.122;5.404;2023-11-18T04:38:26;102463.19;;;5.10;100.00
75414;BME280;64758;52.122;5.404;2023-11-18T04:40:53;102446.31;;;5.12;100.00
75414;BME280;64758;52.122;5.404;2023-11-18T04:43:21;102444.63;;;5.11;100.00
75414;BME280;64758;52.122;5.404;2023-11-18T04:46:08;102447.03;;;5.14;100.00
75414;BME280;64758;52.122;5.404;2023-11-18T04:48:34;102451.13;;;5.18;100.00
75414;BME280;64758;52.122;5.404;2023-11-18T04:51:06;102444.91;;;5.19;100.00
75414;BME280;64758;52.122;5.404;2023-11-18T04:53:33;102435.34;;;5.18;100.00
75414;BME280;64758;52.122;5.404;2023-11-18T04:56:00;102441.34;;;5.20;100.00
75414;BME280;64758;52.122;5.404;2023-11-18T04:58:27;102440.47;;;5.20;100.00
75414;BME280;64758;52.122;5.404;2023-11-18T05:00:54;102437.63;;;5.23;100.00
75414;BME280;64758;52.122;5.404;2023-11-18T05:03:20;102435.72;;;5.25;100.00
75414;BME280;64758;52.122;5.404;2023-11-18T05:05:48;102443.75;;;5.23;100.00
75414;BME280;64758;52.122;5.404;2023-11-18T05:08:19;102444.47;;;5.25;100.00
75414;BME280;64758;52.122;5.404;2023-11-18T05:10:47;102449.75;;;5.25;100.00
75414;BME280;64758;52.122;5.404;2023-11-18T05:13:14;102443.50;;;5.26;100.00
75414;BME280;64758;52.122;5.404;2023-11-18T05:15:43;102448.66;;;5.28;100.00
75414;BME280;64758;52.122;5.404;2023-11-18T05:18:14;102441.38;;;5.31;100.00
75414;BME280;64758;52.122;5.404;2023-11-18T05:20:43;102428.22;;;5.31;100.00
75414;BME280;64758;52.122;5.404;2023-11-18T05:23:10;102422.00;;;5.32;100.00
75414;BME280;64758;52.122;5.404;2023-11-18T05:25:41;102420.09;;;5.34;100.00
75414;BME280;64758;52.122;5.404;2023-11-18T05:28:09;102414.81;;;5.34;100.00
75414;BME280;64758;52.122;5.404;2023-11-18T05:30:40;102398.06;;;5.35;100.00
75414;BME280;64758;52.122;5.404;2023-11-18T05:33:07;102412.78;;;5.38;100.00
75414;BME280;64758;52.122;5.404;2023-11-18T05:35:35;102407.50;;;5.38;100.00
75414;BME280;64758;52.122;5.404;2023-11-18T05:38:02;102410.03;;;5.39;100.00
75414;BME280;64758;52.122;5.404;2023-11-18T05:40:32;102414.34;;;5.40;100.00
75414;BME280;64758;52.122;5.404;2023-11-18T05:43:02;102415.09;;;5.42;100.00
75414;BME280;64758;52.122;5.404;2023-11-18T05:45:32;102408.84;;;5.43;100.00
75414;BME280;64758;52.122;5.404;2023-11-18T05:48:10;102402.72;;;5.43;100.00
75414;BME280;64758;52.122;5.404;2023-11-18T05:50:37;102403.59;;;5.43;100.00
75414;BME280;64758;52.122;5.404;2023-11-18T05:53:04;102403.34;;;5.46;100.00
75414;BME280;64758;52.122;5.404;2023-11-18T05:55:30;102386.69;;;5.46;100.00
75414;BME280;64758;52.122;5.404;2023-11-18T05:57:57;102384.78;;;5.48;100.00
75414;BME280;64758;52.122;5.404;2023-11-18T06:00:24;102373.41;;;5.47;100.00
75414;BME280;64758;52.122;5.404;2023-11-18T06:03:01;102373.41;;;5.47;100.00
75414;BME280;64758;52.122;5.404;2023-11-18T06:05:28;102378.56;;;5.49;100.00
75414;BME280;64758;52.122;5.404;2023-11-18T06:07:55;102383.00;;;5.48;100.00
75414;BME280;64758;52.122;5.404;2023-11-18T06:10:25;102382.88;;;5.50;100.00
75414;BME280;64758;52.122;5.404;2023-11-18T06:12:51;102379.28;;;5.51;100.00
75414;BME280;64758;52.122;5.404;2023-11-18T06:15:19;102364.31;;;5.51;100.00
75414;BME280;64758;52.122;5.404;2023-11-18T06:17:47;102369.59;;;5.51;100.00
75414;BME280;64758;52.122;5.404;2023-11-18T06:20:14;102362.41;;;5.53;100.00
75414;BME280;64758;52.122;5.404;2023-11-18T06:22:43;102378.00;;;5.56;100.00
75414;BME280;64758;52.122;5.404;2023-11-18T06:25:10;102364.91;;;5.55;100.00
75414;BME280;64758;52.122;5.404;2023-11-18T06:27:39;102369.13;;;5.57;100.00
75414;BME280;64758;52.122;5.404;2023-11-18T06:30:06;102371.78;;;5.57;100.00
75414;BME280;64758;52.122;5.404;2023-11-18T06:32:33;102362.06;;;5.58;100.00
75414;BME280;64758;52.122;5.404;2023-11-18T06:34:59;102359.19;;;5.61;100.00
75414;BME280;64758;52.122;5.404;2023-11-18T06:37:32;102354.88;;;5.60;100.00
75414;BME280;64758;52.122;5.404;2023-11-18T06:39:59;102364.44;;;5.61;100.00
75414;BME280;64758;52.122;5.404;2023-11-18T06:42:26;102360.88;;;5.62;100.00
75414;BME280;64758;52.122;5.404;2023-11-18T06:44:52;102361.72;;;5.62;100.00
75414;BME280;64758;52.122;5.404;2023-11-18T06:47:19;102364.13;;;5.65;100.00
75414;BME280;64758;52.122;5.404;2023-11-18T06:49:46;102372.84;;;5.66;100.00
75414;BME280;64758;52.122;5.404;2023-11-18T06:52:14;102360.41;;;5.68;100.00
75414;BME280;64758;52.122;5.404;2023-11-18T06:54:41;102360.41;;;5.68;100.00
75414;BME280;64758;52.122;5.404;2023-11-18T06:57:08;102370.59;;;5.72;100.00
75414;BME280;64758;52.122;5.404;2023-11-18T06:59:34;102370.69;;;5.71;100.00
75414;BME280;64758;52.122;5.404;2023-11-18T07:02:01;102373.22;;;5.72;100.00
75414;BME280;64758;52.122;5.404;2023-11-18T07:04:30;102364.38;;;5.73;100.00
75414;BME280;64758;52.122;5.404;2023-11-18T07:06:57;102367.72;;;5.75;100.00
75414;BME280;64758;52.122;5.404;2023-11-18T07:09:23;102360.78;;;5.74;100.00
75414;BME280;64758;52.122;5.404;2023-11-18T07:11:52;102353.59;;;5.76;100.00
75414;BME280;64758;52.122;5.404;2023-11-18T07:14:19;102370.38;;;5.75;100.00
75414;BME280;64758;52.122;5.404;2023-11-18T07:16:46;102367.72;;;5.75;100.00
75414;BME280;64758;52.122;5.404;2023-11-18T07:19:12;102364.13;;;5.76;100.00
75414;BME280;64758;52.122;5.404;2023-11-18T07:21:49;102375.31;;;5.80;100.00
75414;BME280;64758;52.122;5.404;2023-11-18T07:24:16;102370.97;;;5.79;100.00
75414;BME280;64758;52.122;5.404;2023-11-18T07:26:44;102369.31;;;5.78;100.00
75414;BME280;64758;52.122;5.404;2023-11-18T07:29:11;102375.19;;;5.81;100.00
75414;BME280;64758;52.122;5.404;2023-11-18T07:31:38;102388.25;;;5.83;100.00
75414;BME280;64758;52.122;5.404;2023-11-18T07:34:05;102385.63;;;5.83;100.00
75414;BME280;64758;52.122;5.404;2023-11-18T07:36:34;102394.38;;;5.83;100.00
75414;BME280;64758;52.122;5.404;2023-11-18T07:39:01;102409.25;;;5.84;100.00
75414;BME280;64758;52.122;5.404;2023-11-18T07:41:31;102403.97;;;5.84;100.00
75414;BME280;64758;52.122;5.404;2023-11-18T07:43:59;102389.81;;;5.85;100.00
75414;BME280;64758;52.122;5.404;2023-11-18T07:46:27;102393.91;;;5.89;100.00
75414;BME280;64758;52.122;5.404;2023-11-18T07:48:55;102380.59;;;5.91;100.00
75414;BME280;64758;52.122;5.404;2023-11-18T07:51:23;102369.09;;;5.92;100.00
75414;BME280;64758;52.122;5.404;2023-11-18T07:53:51;102366.44;;;5.92;100.00
75414;BME280;64758;52.122;5.404;2023-11-18T07:56:17;102362.03;;;5.92;100.00
75414;BME280;64758;52.122;5.404;2023-11-18T07:58:45;102356.75;;;5.92;100.00
75414;BME280;64758;52.122;5.404;2023-11-18T08:01:14;102364.44;;;5.95;100.00
75414;BME280;64758;52.122;5.404;2023-11-18T08:03:44;102366.09;;;5.96;100.00
75414;BME280;64758;52.122;5.404;2023-11-18T08:06:11;102346.69;;;5.97;100.00
75414;BME280;64758;52.122;5.404;2023-11-18T08:08:39;102346.69;;;5.97;100.00
75414;BME280;64758;52.122;5.404;2023-11-18T08:11:06;102348.22;;;6.00;100.00
75414;BME280;64758;52.122;5.404;2023-11-18T08:13:33;102342.00;;;6.01;100.00
75414;BME280;64758;52.122;5.404;2023-11-18T08:16:00;102340.31;;;6.00;100.00
75414;BME280;64758;52.122;5.404;2023-11-18T08:18:28;102334.22;;;5.99;100.00
75414;BME280;64758;52.122;5.404;2023-11-18T08:20:57;102324.50;;;6.00;100.00
75414;BME280;64758;52.122;5.404;2023-11-18T08:23:26;102335.66;;;6.03;100.00
75414;BME280;64758;52.122;5.404;2023-11-18T08:25:55;102327.75;;;6.03;100.00
75414;BME280;64758;52.122;5.404;2023-11-18T08:28:21;102330.25;;;6.05;100.00
75414;BME280;64758;52.122;5.404;2023-11-18T08:30:48;102328.31;;;6.07;100.00
75414;BME280;64758;52.122;5.404;2023-11-18T08:33:17;102313.34;;;6.07;100.00
75414;BME280;64758;52.122;5.404;2023-11-18T08:35:44;102301.00;;;6.08;100.00
75414;BME280;64758;52.122;5.404;2023-11-18T08:38:12;102303.53;;;6.09;100.00
75414;BME280;64758;52.122;5.404;2023-11-18T08:40:40;102308.41;;;6.14;100.00
75414;BME280;64758;52.122;5.404;2023-11-18T08:43:07;102295.13;;;6.15;100.00
75414;BME280;64758;52.122;5.404;2023-11-18T08:45:34;102288.75;;;6.18;100.00
75414;BME280;64758;52.122;5.404;2023-11-18T08:48:03;102297.03;;;6.24;100.00
75414;BME280;64758;52.122;5.404;2023-11-18T08:50:35;102288.03;;;6.27;100.00
75414;BME280;64758;52.122;5.404;2023-11-18T08:53:02;102294.38;;;6.35;100.00
75414;BME280;64758;52.122;5.404;2023-11-18T08:55:33;102291.34;;;6.39;100.00
75414;BME280;64758;52.122;5.404;2023-11-18T08:58:09;102274.41;;;6.42;100.00
75414;BME280;64758;52.122;5.404;2023-11-18T09:00:51;102276.56;;;6.48;100.00
75414;BME280;64758;52.122;5.404;2023-11-18T09:03:25;102274.63;;;6.50;100.00
75414;BME280;64758;52.122;5.404;2023-11-18T09:05:57;102284.13;;;6.52;100.00
75414;BME280;64758;52.122;5.404;2023-11-18T09:08:25;102266.34;;;6.54;100.00
75414;BME280;64758;52.122;5.404;2023-11-18T09:10:51;102250.38;;;6.56;100.00
75414;BME280;64758;52.122;5.404;2023-11-18T09:13:25;102244.84;;;6.59;100.00
75414;BME280;64758;52.122;5.404;2023-11-18T09:15:56;102242.91;;;6.61;100.00
75414;BME280;64758;52.122;5.404;2023-11-18T09:18:24;102240.16;;;6.62;100.00
75414;BME280;64758;52.122;5.404;2023-11-18T09:20:51;102246.28;;;6.63;100.00
75414;BME280;64758;52.122;5.404;2023-11-18T09:23:19;102234.50;;;6.67;100.00
75414;BME280;64758;52.122;5.404;2023-11-18T09:25:46;102228.25;;;6.68;100.00
75414;BME280;64758;52.122;5.404;2023-11-18T09:28:16;102223.69;;;6.70;100.00
75414;BME280;64758;52.122;5.404;2023-11-18T09:30:43;102221.75;;;6.72;100.00
75414;BME280;64758;52.122;5.404;2023-11-18T09:33:25;102218.41;;;6.70;100.00
75414;BME280;64758;52.122;5.404;2023-11-18T09:35:56;102212.28;;;6.69;100.00
75414;BME280;64758;52.122;5.404;2023-11-18T09:38:29;102210.47;;;6.70;100.00
75414;BME280;64758;52.122;5.404;2023-11-18T09:41:00;102199.91;;;6.70;100.00
75414;BME280;64758;52.122;5.404;2023-11-18T09:43:30;102181.31;;;6.71;100.00
75414;BME280;64758;52.122;5.404;2023-11-18T09:46:06;102167.28;;;6.71;100.00
75414;BME280;64758;52.122;5.404;2023-11-18T09:51:43;102176.16;;;6.70;100.00
75414;BME280;64758;52.122;5.404;2023-11-18T09:54:44;102179.50;;;6.72;100.00
75414;BME280;64758;52.122;5.404;2023-11-18T09:57:31;102177.47;;;6.75;100.00
75414;BME280;64758;52.122;5.404;2023-11-18T10:00:03;102180.09;;;6.75;100.00
75414;BME280;64758;52.122;5.404;2023-11-18T10:02:49;102190.50;;;6.77;100.00
75414;BME280;64758;52.122;5.404;2023-11-18T10:05:22;102178.03;;;6.79;100.00
75414;BME280;64758;52.122;5.404;2023-11-18T10:07:50;102185.94;;;6.79;100.00
75414;BME280;64758;52.122;5.404;2023-11-18T10:10:17;102182.34;;;6.80;100.00
75414;BME280;64758;52.122;5.404;2023-11-18T10:12:48;102170.00;;;6.80;100.00
75414;BME280;64758;52.122;5.404;2023-11-18T10:15:25;102164.56;;;6.82;100.00
75414;BME280;64758;52.122;5.404;2023-11-18T10:17:52;102162.88;;;6.81;100.00
75414;BME280;64758;52.122;5.404;2023-11-18T10:20:50;102166.13;;;6.84;100.00
75414;BME280;64758;52.122;5.404;2023-11-18T10:23:19;102160.00;;;6.84;100.00
75414;BME280;64758;52.122;5.404;2023-11-18T10:25:55;102166.84;;;6.86;100.00
75414;BME280;64758;52.122;5.404;2023-11-18T10:28:25;102168.63;;;6.86;100.00
75414;BME280;64758;52.122;5.404;2023-11-18T10:30:56;102170.28;;;6.87;100.00
75414;BME280;64758;52.122;5.404;2023-11-18T10:33:39;102177.25;;;6.88;100.00
75414;BME280;64758;52.122;5.404;2023-11-18T10:36:22;102163.22;;;6.87;100.00
75414;BME280;64758;52.122;5.404;2023-11-18T10:38:51;102147.22;;;6.89;100.00
75414;BME280;64758;52.122;5.404;2023-11-18T10:41:22;102140.16;;;6.89;100.00
75414;BME280;64758;52.122;5.404;2023-11-18T10:44:05;102136.66;;;6.89;100.00
75414;BME280;64758;52.122;5.404;2023-11-18T10:46:32;102129.59;;;6.89;100.00
75414;BME280;64758;52.122;5.404;2023-11-18T10:48:59;102125.84;;;6.92;100.00
75414;BME280;64758;52.122;5.404;2023-11-18T10:51:25;102125.59;;;6.95;100.00
75414;BME280;64758;52.122;5.404;2023-11-18T10:53:53;102120.31;;;6.95;100.00
75414;BME280;64758;52.122;5.404;2023-11-18T10:56:27;102116.69;;;6.96;100.00
75414;BME280;64758;52.122;5.404;2023-11-18T10:58:55;102105.16;;;6.97;100.00
75414;BME280;64758;52.122;5.404;2023-11-18T11:01:32;102105.03;;;6.98;100.00
75414;BME280;64758;52.122;5.404;2023-11-18T11:04:00;102099.63;;;7.00;100.00
75414;BME280;64758;52.122;5.404;2023-11-18T11:06:32;102095.19;;;7.00;100.00
75414;BME280;64758;52.122;5.404;2023-11-18T11:08:59;102097.69;;;7.02;100.00
75414;BME280;64758;52.122;5.404;2023-11-18T11:11:33;102096.72;;;7.03;100.00
75414;BME280;64758;52.122;5.404;2023-11-18T11:14:06;102107.28;;;7.03;100.00
75414;BME280;64758;52.122;5.404;2023-11-18T11:16:40;102089.75;;;7.02;100.00
75414;BME280;64758;52.122;5.404;2023-11-18T11:22:18;102040.28;;;7.04;100.00
75414;BME280;64758;52.122;5.404;2023-11-18T11:25:20;102024.16;;;7.07;100.00
75414;BME280;64758;52.122;5.404;2023-11-18T11:27:56;101992.44;;;7.07;100.00
75414;BME280;64758;52.122;5.404;2023-11-18T11:30:29;101980.81;;;7.09;100.00
75414;BME280;64758;52.122;5.404;2023-11-18T11:33:27;101954.09;;;7.12;100.00
75414;BME280;64758;52.122;5.404;2023-11-18T11:35:56;101948.41;;;7.17;100.00
75414;BME280;64758;52.122;5.404;2023-11-18T11:38:25;101959.66;;;7.19;100.00
75414;BME280;64758;52.122;5.404;2023-11-18T11:40:58;101946.72;;;7.16;100.00
75414;BME280;64758;52.122;5.404;2023-11-18T11:43:29;101953.41;;;7.20;100.00
75414;BME280;64758;52.122;5.404;2023-11-18T11:45:56;101948.81;;;7.22;100.00
75414;BME280;64758;52.122;5.404;2023-11-18T11:48:24;101949.41;;;7.25;100.00
75414;BME280;64758;52.122;5.404;2023-11-18T11:53:35;101935.22;;;7.26;100.00
75414;BME280;64758;52.122;5.404;2023-11-18T11:56:06;101911.00;;;7.31;100.00
75414;BME280;64758;52.122;5.404;2023-11-18T11:58:34;101888.78;;;7.33;100.00
75414;BME280;64758;52.122;5.404;2023-11-18T12:01:26;101891.13;;;7.36;100.00
75414;BME280;64758;52.122;5.404;2023-11-18T12:03:59;101894.47;;;7.38;100.00
75414;BME280;64758;52.122;5.404;2023-11-18T12:06:33;101896.25;;;7.38;100.00
75414;BME280;64758;52.122;5.404;2023-11-18T12:09:03;101875.00;;;7.39;100.00
75414;BME280;64758;52.122;5.404;2023-11-18T12:11:35;101877.34;;;7.42;100.00
75414;BME280;64758;52.122;5.404;2023-11-18T12:14:12;101866.34;;;7.47;100.00
75414;BME280;64758;52.122;5.404;2023-11-18T12:16:58;101863.41;;;7.50;100.00
75414;BME280;64758;52.122;5.404;2023-11-18T12:19:37;101851.31;;;7.56;100.00
75414;BME280;64758;52.122;5.404;2023-11-18T12:22:18;101849.22;;;7.60;100.00
75414;BME280;64758;52.122;5.404;2023-11-18T12:33:04;101801.88;;;7.66;100.00
75414;BME280;64758;52.122;5.404;2023-11-18T12:40:55;101784.75;;;7.70;100.00
75414;BME280;64758;52.122;5.404;2023-11-18T12:43:47;101781.81;;;7.73;100.00
75414;BME280;64758;52.122;5.404;2023-11-18T12:49:03;101773.34;;;7.70;100.00
75414;BME280;64758;52.122;5.404;2023-11-18T12:51:32;101777.63;;;7.71;100.00
75414;BME280;64758;52.122;5.404;2023-11-18T12:54:01;101761.94;;;7.69;100.00
75414;BME280;64758;52.122;5.404;2023-11-18T12:56:29;101716.00;;;7.70;100.00
75414;BME280;64758;52.122;5.404;2023-11-18T12:58:56;101659.34;;;7.73;100.00
75414;BME280;64758;52.122;5.404;2023-11-18T13:01:23;101650.19;;;7.67;100.00
75414;BME280;64758;52.122;5.404;2023-11-18T13:03:51;101653.53;;;7.69;100.00
75414;BME280;64758;52.122;5.404;2023-11-18T13:06:20;101666.88;;;7.68;100.00
75414;BME280;64758;52.122;5.404;2023-11-18T13:08:50;101653.53;;;7.69;100.00
75414;BME280;64758;52.122;5.404;2023-11-18T13:11:17;101672.03;;;7.69;100.00
75414;BME280;64758;52.122;5.404;2023-11-18T13:13:43;101683.59;;;7.68;100.00
75414;BME280;64758;52.122;5.404;2023-11-18T13:16:10;101676.66;;;7.67;100.00
75414;BME280;64758;52.122;5.404;2023-11-18T13:18:47;101657.84;;;7.70;100.00
75414;BME280;64758;52.122;5.404;2023-11-18T13:21:19;101682.31;;;7.72;100.00
75414;BME280;64758;52.122;5.404;2023-11-18T13:23:52;101683.00;;;7.74;100.00
75414;BME280;64758;52.122;5.404;2023-11-18T13:26:20;101681.34;;;7.73;100.00
75414;BME280;64758;52.122;5.404;2023-11-18T13:28:47;101660.19;;;7.73;100.00
75414;BME280;64758;52.122;5.404;2023-11-18T13:31:16;101662.66;;;7.75;100.00
75414;BME280;64758;52.122;5.404;2023-11-18T13:33:43;101660.72;;;7.77;100.00